createdAt,value
2023-06-30T00:00:28.562Z,16.70
2023-06-30T00:02:57.566Z,16.70
2023-06-30T00:05:26.697Z,16.70
2023-06-30T00:07:59.771Z,16.60
2023-06-30T00:10:29.522Z,16.60
2023-06-30T00:12:57.669Z,16.60
2023-06-30T00:15:25.830Z,16.60
2023-06-30T00:17:54.874Z,16.50
2023-06-30T00:20:24.806Z,16.50
2023-06-30T00:22:54.334Z,16.50
2023-06-30T00:25:22.669Z,16.50
2023-06-30T00:27:52.299Z,16.40
2023-06-30T00:30:20.568Z,16.40
2023-06-30T00:32:48.939Z,16.40
2023-06-30T00:35:17.263Z,16.30
2023-06-30T00:37:45.525Z,16.30
2023-06-30T00:40:15.976Z,16.20
2023-06-30T00:42:44.322Z,16.10
2023-06-30T00:45:14.196Z,16.10
2023-06-30T00:47:42.418Z,16.00
2023-06-30T00:50:11.968Z,15.90
2023-06-30T00:52:40.295Z,15.90
2023-06-30T00:55:10.722Z,15.80
2023-06-30T00:57:39.404Z,15.80
2023-06-30T01:00:12.382Z,15.70
2023-06-30T01:02:50.344Z,15.70
2023-06-30T01:05:26.473Z,15.60
2023-06-30T01:08:02.119Z,15.60
2023-06-30T01:10:32.310Z,15.50
2023-06-30T01:13:02.680Z,15.50
2023-06-30T01:15:31.552Z,15.40
2023-06-30T01:18:03.030Z,15.30
2023-06-30T01:20:34.388Z,15.30
2023-06-30T01:23:09.245Z,15.30
2023-06-30T01:25:37.393Z,15.30
2023-06-30T01:28:06.580Z,15.20
2023-06-30T01:30:35.374Z,15.20
2023-06-30T01:33:05.240Z,15.10
2023-06-30T01:35:33.616Z,15.10
2023-06-30T01:38:03.403Z,15.00
2023-06-30T01:40:32.157Z,15.00
2023-06-30T01:43:00.457Z,14.90
2023-06-30T01:45:30.241Z,14.90
2023-06-30T01:47:59.921Z,14.90
2023-06-30T01:50:31.048Z,14.80
2023-06-30T01:52:59.313Z,14.80
2023-06-30T01:55:28.208Z,14.80
2023-06-30T01:57:56.413Z,14.80
2023-06-30T02:00:24.721Z,14.70
2023-06-30T02:02:53.237Z,14.60
2023-06-30T02:05:21.593Z,14.60
2023-06-30T02:07:51.405Z,14.60
2023-06-30T02:10:19.873Z,14.50
2023-06-30T02:12:48.128Z,14.50
2023-06-30T02:15:16.280Z,14.40
2023-06-30T02:17:44.641Z,14.40
2023-06-30T02:20:14.302Z,14.30
2023-06-30T02:22:43.120Z,14.30
2023-06-30T02:25:12.673Z,14.20
2023-06-30T02:27:40.994Z,14.10
2023-06-30T02:30:10.176Z,14.10
2023-06-30T02:32:39.744Z,14.00
2023-06-30T02:35:09.349Z,14.00
2023-06-30T02:37:37.675Z,14.00
2023-06-30T02:40:07.135Z,13.90
2023-06-30T02:42:36.832Z,13.80
2023-06-30T02:45:06.229Z,13.70
2023-06-30T02:47:34.441Z,13.70
2023-06-30T02:50:02.780Z,13.70
2023-06-30T02:52:30.942Z,13.60
2023-06-30T02:54:59.098Z,13.60
2023-06-30T02:57:27.675Z,13.50
2023-06-30T02:59:57.253Z,13.50
2023-06-30T03:07:55.992Z,13.30
2023-06-30T03:10:36.593Z,13.30
2023-06-30T03:13:04.710Z,13.30
2023-06-30T03:15:32.787Z,13.20
2023-06-30T03:18:00.925Z,13.20
2023-06-30T03:20:29.049Z,13.20
2023-06-30T03:22:57.136Z,13.20
2023-06-30T03:25:25.587Z,13.20
2023-06-30T03:27:55.034Z,13.20
2023-06-30T03:30:23.136Z,13.10
2023-06-30T03:32:51.310Z,13.10
2023-06-30T03:35:19.651Z,13.10
2023-06-30T03:37:47.718Z,13.10
2023-06-30T03:40:15.835Z,13.10
2023-06-30T03:42:43.963Z,13.10
2023-06-30T03:45:13.688Z,13.10
2023-06-30T03:47:41.896Z,13.10
2023-06-30T03:50:10.854Z,13.10
2023-06-30T03:52:38.981Z,13.10
2023-06-30T03:55:07.845Z,13.10
2023-06-30T03:57:35.948Z,13.10
2023-06-30T04:00:05.417Z,13.10
2023-06-30T04:02:34.928Z,13.20
2023-06-30T04:05:03.289Z,13.20
2023-06-30T04:07:31.549Z,13.30
2023-06-30T04:10:00.139Z,13.30
2023-06-30T04:12:28.341Z,13.40
2023-06-30T04:14:56.466Z,13.50
2023-06-30T04:17:24.608Z,13.50
2023-06-30T04:19:54.115Z,13.60
2023-06-30T04:22:23.380Z,13.70
2023-06-30T04:24:51.484Z,13.70
2023-06-30T04:27:19.847Z,13.80
2023-06-30T04:29:47.979Z,13.80
2023-06-30T04:32:16.121Z,13.90
2023-06-30T04:34:45.635Z,14.00
2023-06-30T04:37:15.953Z,14.10
2023-06-30T04:39:44.584Z,14.10
2023-06-30T04:42:12.678Z,14.20
2023-06-30T04:44:40.886Z,14.30
2023-06-30T04:47:09.674Z,14.40
2023-06-30T04:49:37.777Z,14.40
2023-06-30T04:52:06.802Z,14.50
2023-06-30T04:54:36.222Z,14.50
2023-06-30T04:57:04.488Z,14.60
2023-06-30T04:59:32.610Z,14.70
2023-06-30T05:02:01.643Z,14.70
2023-06-30T05:04:29.827Z,14.70
2023-06-30T05:06:57.921Z,14.70
2023-06-30T05:09:26.484Z,14.80
2023-06-30T05:11:55.998Z,14.90
2023-06-30T05:29:49.296Z,15.60
2023-06-30T05:32:17.419Z,15.60
2023-06-30T05:34:47.689Z,15.60
2023-06-30T05:37:16.088Z,15.70
2023-06-30T05:39:44.400Z,15.70
2023-06-30T05:42:12.531Z,15.60
2023-06-30T05:44:40.673Z,15.70
2023-06-30T05:47:10.377Z,15.80
2023-06-30T05:49:38.487Z,15.90
2023-06-30T05:52:08.386Z,15.90
2023-06-30T05:54:36.463Z,16.10
2023-06-30T05:57:04.897Z,16.10
2023-06-30T05:59:32.972Z,16.30
2023-06-30T06:02:01.079Z,16.30
2023-06-30T06:04:30.760Z,16.40
2023-06-30T06:07:03.590Z,16.40
2023-06-30T06:09:31.847Z,16.50
2023-06-30T06:12:00.008Z,16.60
2023-06-30T06:14:28.103Z,18.00
2023-06-30T06:16:56.336Z,20.10
2023-06-30T06:19:24.468Z,21.70
2023-06-30T06:21:53.987Z,22.50
2023-06-30T06:24:22.153Z,23.50
2023-06-30T06:26:50.188Z,24.30
2023-06-30T06:29:22.839Z,24.70
2023-06-30T06:35:31.842Z,24.50
2023-06-30T06:38:01.368Z,24.30
2023-06-30T06:40:30.957Z,24.60
2023-06-30T06:42:59.210Z,24.30
2023-06-30T06:45:27.704Z,24.40
2023-06-30T06:48:18.916Z,25.00
2023-06-30T06:50:47.161Z,25.40
2023-06-30T06:53:21.217Z,24.90
2023-06-30T06:55:50.601Z,24.90
2023-06-30T06:58:18.980Z,25.00
2023-06-30T07:00:48.230Z,26.40
2023-06-30T07:03:16.900Z,26.50
2023-06-30T07:05:46.537Z,27.00
2023-06-30T07:08:15.749Z,27.10
2023-06-30T07:10:46.027Z,26.50
2023-06-30T07:13:14.715Z,26.40
2023-06-30T07:15:43.087Z,27.60
2023-06-30T07:18:11.775Z,29.10
2023-06-30T07:20:39.995Z,29.10
2023-06-30T07:23:08.087Z,28.50
2023-06-30T07:25:36.182Z,28.50
2023-06-30T07:28:05.993Z,29.00
2023-06-30T07:30:34.156Z,29.00
2023-06-30T07:33:02.272Z,29.30
2023-06-30T07:35:30.589Z,29.90
2023-06-30T07:37:58.693Z,29.80
2023-06-30T07:40:28.231Z,29.50
2023-06-30T07:42:58.466Z,29.90
2023-06-30T07:45:27.930Z,29.60
2023-06-30T07:47:56.184Z,28.90
2023-06-30T07:50:25.449Z,28.70
2023-06-30T07:52:53.601Z,29.40
2023-06-30T07:55:22.213Z,29.50
2023-06-30T07:57:50.538Z,29.40
2023-06-30T08:00:19.949Z,29.80
2023-06-30T08:02:49.881Z,30.30
2023-06-30T08:05:18.347Z,30.20
2023-06-30T08:07:50.252Z,30.20
2023-06-30T08:10:19.922Z,30.60
2023-06-30T08:12:48.131Z,30.40
2023-06-30T08:15:16.248Z,29.70
2023-06-30T08:17:52.916Z,28.80
2023-06-30T08:20:27.933Z,28.90
2023-06-30T08:22:56.251Z,29.90
2023-06-30T08:25:25.495Z,29.70
2023-06-30T08:27:54.153Z,30.00
2023-06-30T08:30:25.051Z,28.90
2023-06-30T08:32:55.393Z,29.00
2023-06-30T08:35:24.405Z,30.00
2023-06-30T08:37:54.489Z,30.80
2023-06-30T08:40:27.359Z,29.70
2023-06-30T08:42:57.430Z,30.10
2023-06-30T08:45:26.907Z,30.50
2023-06-30T08:47:55.182Z,30.70
2023-06-30T08:50:23.862Z,30.60
2023-06-30T08:52:54.601Z,29.30
2023-06-30T08:55:22.713Z,29.00
2023-06-30T08:57:51.534Z,29.00
2023-06-30T09:00:20.967Z,28.80
2023-06-30T09:02:50.490Z,28.00
2023-06-30T09:05:19.158Z,27.50
2023-06-30T09:07:52.425Z,27.40
2023-06-30T09:10:24.151Z,28.00
2023-06-30T09:12:55.584Z,28.80
2023-06-30T09:15:24.586Z,29.70
2023-06-30T09:17:53.958Z,29.60
2023-06-30T09:20:23.664Z,29.00
2023-06-30T09:22:56.572Z,29.60
2023-06-30T09:25:42.544Z,29.70
2023-06-30T09:28:13.413Z,29.20
2023-06-30T09:30:44.706Z,29.50
2023-06-30T09:33:15.823Z,29.70
2023-06-30T09:35:46.334Z,29.00
2023-06-30T09:38:16.223Z,29.10
2023-06-30T09:40:46.757Z,30.10
2023-06-30T09:43:19.367Z,30.60
2023-06-30T09:45:50.191Z,30.50
2023-06-30T09:48:18.765Z,30.00
2023-06-30T09:50:46.883Z,29.80
2023-06-30T09:53:21.009Z,28.70
2023-06-30T09:55:52.006Z,28.50
2023-06-30T09:58:21.625Z,28.80
2023-06-30T10:00:52.840Z,29.40
2023-06-30T10:03:21.134Z,29.40
2023-06-30T10:05:50.608Z,29.40
2023-06-30T10:08:19.264Z,28.60
2023-06-30T10:10:47.706Z,28.40
2023-06-30T10:13:20.053Z,28.60
2023-06-30T10:15:48.694Z,28.50
2023-06-30T10:18:19.090Z,27.70
2023-06-30T10:20:49.976Z,26.80
2023-06-30T10:23:20.357Z,26.40
2023-06-30T10:25:51.011Z,26.40
2023-06-30T10:28:21.439Z,26.40
2023-06-30T10:30:52.396Z,26.80
2023-06-30T10:33:20.709Z,27.10
2023-06-30T10:35:51.437Z,27.10
2023-06-30T10:38:20.588Z,27.30
2023-06-30T10:40:48.974Z,27.00
2023-06-30T10:43:17.158Z,26.50
2023-06-30T10:46:11.286Z,26.60
2023-06-30T10:48:42.001Z,26.50
2023-06-30T10:51:13.693Z,27.40
2023-06-30T10:53:44.834Z,27.60
2023-06-30T10:56:12.977Z,27.20
2023-06-30T10:58:44.240Z,27.20
2023-06-30T11:01:16.779Z,27.40
2023-06-30T11:04:13.020Z,27.10
2023-06-30T11:06:41.801Z,26.50
2023-06-30T11:09:12.563Z,26.70
2023-06-30T11:11:50.830Z,26.60
2023-06-30T11:14:34.001Z,26.20
2023-06-30T11:17:08.006Z,26.70
2023-06-30T11:19:38.519Z,27.20
2023-06-30T11:22:26.573Z,27.00
2023-06-30T11:24:55.728Z,27.50
2023-06-30T11:27:24.026Z,27.60
2023-06-30T11:29:52.556Z,27.80
2023-06-30T11:32:28.563Z,27.70
2023-06-30T11:34:58.541Z,27.20
2023-06-30T11:37:27.654Z,26.60
2023-06-30T11:39:57.365Z,26.40
2023-06-30T11:42:25.659Z,26.90
2023-06-30T11:44:53.808Z,26.80
2023-06-30T11:47:23.316Z,26.90
2023-06-30T11:49:52.086Z,26.30
2023-06-30T11:52:21.133Z,26.00
2023-06-30T11:54:49.398Z,26.30
2023-06-30T11:57:17.559Z,26.40
2023-06-30T11:59:45.716Z,26.50
2023-06-30T12:02:14.808Z,26.60
2023-06-30T12:04:49.756Z,26.30
2023-06-30T12:07:30.780Z,25.80
2023-06-30T12:10:02.633Z,25.70
2023-06-30T12:12:31.365Z,25.40
2023-06-30T12:14:59.642Z,25.80
2023-06-30T12:17:30.241Z,26.00
2023-06-30T12:19:59.796Z,26.10
2023-06-30T12:22:29.247Z,26.10
2023-06-30T12:24:59.023Z,25.90
2023-06-30T12:27:28.596Z,25.90
2023-06-30T12:30:00.465Z,25.80
2023-06-30T12:32:32.553Z,26.00
2023-06-30T12:35:07.270Z,26.30
2023-06-30T12:37:38.327Z,26.60
2023-06-30T12:40:09.592Z,26.50
2023-06-30T12:42:41.172Z,26.20
2023-06-30T12:45:13.345Z,25.90
2023-06-30T12:52:18.307Z,26.10
2023-06-30T12:54:48.159Z,26.20
2023-06-30T12:57:16.448Z,26.40
2023-06-30T12:59:45.191Z,26.40
2023-06-30T13:02:13.738Z,26.50
2023-06-30T13:04:41.980Z,26.80
2023-06-30T13:10:02.296Z,27.00
2023-06-30T13:12:30.899Z,26.60
2023-06-30T13:14:59.647Z,25.90
2023-06-30T13:17:28.038Z,26.10
2023-06-30T13:19:56.282Z,26.20
2023-06-30T13:22:24.729Z,26.50
2023-06-30T13:24:53.926Z,26.60
2023-06-30T13:27:23.646Z,26.70
2023-06-30T13:29:53.500Z,26.70
2023-06-30T13:32:21.627Z,26.60
2023-06-30T13:34:50.474Z,26.80
2023-06-30T13:37:18.645Z,26.70
2023-06-30T13:39:46.728Z,26.50
2023-06-30T13:42:14.815Z,26.50
2023-06-30T13:44:44.693Z,26.40
2023-06-30T13:59:30.761Z,26.30
2023-06-30T14:02:00.258Z,26.10
2023-06-30T14:04:28.672Z,25.80
2023-06-30T14:06:56.929Z,25.60
2023-06-30T14:09:28.522Z,25.50
2023-06-30T14:23:20.368Z,26.50
2023-06-30T14:25:48.721Z,26.30
2023-06-30T14:28:17.064Z,25.90
2023-06-30T14:30:45.281Z,25.80
2023-06-30T14:33:16.564Z,25.50
2023-06-30T14:35:45.007Z,25.30
2023-06-30T14:38:13.397Z,25.20
2023-06-30T14:40:42.974Z,25.00
2023-06-30T14:43:11.051Z,24.90
2023-06-30T14:45:39.193Z,24.80
2023-06-30T14:48:07.772Z,24.70
2023-06-30T14:50:37.528Z,24.70
2023-06-30T14:53:05.713Z,24.70
2023-06-30T14:55:33.870Z,24.70
2023-06-30T14:58:03.392Z,24.80
2023-06-30T15:00:31.538Z,25.00
2023-06-30T15:03:00.319Z,25.30
2023-06-30T15:05:30.146Z,25.50
2023-06-30T15:07:58.297Z,25.60
2023-06-30T15:10:26.538Z,25.60
2023-06-30T15:12:54.739Z,25.70
2023-06-30T15:15:24.378Z,25.70
2023-06-30T15:17:52.587Z,25.60
2023-06-30T15:20:20.783Z,25.50
2023-06-30T15:22:50.786Z,25.30
2023-06-30T15:25:26.030Z,25.20
2023-06-30T15:27:55.146Z,25.20
2023-06-30T15:30:25.109Z,25.40
2023-06-30T15:32:54.512Z,25.20
2023-06-30T15:35:23.191Z,25.30
2023-06-30T15:37:51.303Z,25.40
2023-06-30T15:40:19.697Z,25.40
2023-06-30T15:42:47.843Z,25.40
2023-06-30T15:45:15.953Z,25.30
2023-06-30T15:47:45.468Z,25.10
2023-06-30T15:50:13.639Z,25.00
2023-06-30T15:52:41.798Z,25.00
2023-06-30T15:55:12.057Z,24.80
2023-06-30T15:57:40.530Z,24.80
2023-06-30T16:00:10.466Z,24.70
2023-06-30T16:02:39.110Z,24.60
2023-06-30T16:05:12.609Z,24.50
2023-06-30T16:07:40.850Z,24.50
2023-06-30T16:10:09.232Z,24.40
2023-06-30T16:12:37.394Z,24.30
2023-06-30T16:27:01.002Z,24.70
2023-06-30T16:29:53.887Z,24.80
2023-06-30T16:32:22.083Z,24.90
2023-06-30T16:42:24.577Z,25.10
2023-06-30T16:44:52.680Z,25.10
2023-06-30T16:47:22.403Z,25.00
2023-06-30T16:49:50.568Z,24.80
2023-06-30T16:52:18.657Z,24.50
2023-06-30T16:54:46.778Z,24.20
2023-06-30T16:57:14.956Z,24.10
2023-06-30T16:59:44.473Z,24.00
2023-06-30T17:02:37.198Z,24.10
2023-06-30T17:05:06.448Z,24.20
2023-06-30T17:07:35.596Z,24.20
2023-06-30T17:10:05.759Z,24.20
2023-06-30T17:12:34.067Z,24.30
2023-06-30T17:15:03.561Z,24.30
2023-06-30T17:17:31.716Z,24.10
2023-06-30T17:19:59.837Z,24.00
2023-06-30T17:22:27.922Z,23.80
2023-06-30T17:25:01.009Z,23.70
2023-06-30T17:27:32.734Z,23.60
2023-06-30T17:30:00.896Z,23.60
2023-06-30T17:32:30.444Z,23.50
2023-06-30T17:34:58.614Z,23.50
2023-06-30T17:37:26.750Z,23.40
2023-06-30T17:39:54.906Z,23.50
2023-06-30T17:42:23.064Z,23.40
2023-06-30T17:44:51.202Z,23.30
2023-06-30T17:47:19.534Z,23.30
2023-06-30T17:49:49.073Z,23.30
2023-06-30T17:52:17.252Z,23.30
2023-06-30T17:54:45.394Z,23.30
2023-06-30T17:57:14.459Z,23.30
2023-06-30T17:59:42.583Z,23.20
2023-06-30T18:02:10.775Z,23.10
2023-06-30T18:04:39.257Z,23.00
2023-06-30T18:07:11.784Z,22.90
2023-06-30T18:09:41.598Z,22.90
2023-06-30T18:12:11.317Z,22.90
2023-06-30T18:14:40.443Z,23.00
2023-06-30T18:17:08.652Z,23.00
2023-06-30T18:19:36.943Z,22.90
2023-06-30T18:22:05.449Z,22.80
2023-06-30T18:24:34.916Z,22.70
2023-06-30T18:27:03.046Z,22.70
2023-06-30T18:29:31.421Z,22.60
2023-06-30T18:32:00.980Z,22.60
2023-06-30T18:34:29.410Z,22.50
2023-06-30T18:36:57.632Z,22.50
2023-06-30T18:39:25.746Z,22.60
2023-06-30T18:41:55.900Z,22.50
2023-06-30T18:44:26.006Z,22.60
2023-06-30T18:46:54.214Z,22.50
2023-06-30T18:49:24.762Z,22.50
2023-06-30T18:51:55.255Z,22.40
2023-06-30T18:54:23.728Z,22.30
2023-06-30T18:56:52.133Z,22.20
2023-06-30T18:59:21.717Z,22.00
2023-06-30T19:01:50.181Z,21.90
2023-06-30T19:04:18.760Z,21.80
2023-06-30T19:06:48.572Z,21.60
2023-06-30T19:09:17.621Z,21.50
2023-06-30T19:11:45.706Z,21.50
2023-06-30T19:14:13.937Z,21.50
2023-06-30T19:16:43.366Z,21.40
2023-06-30T19:19:11.464Z,21.30
2023-06-30T19:21:39.571Z,21.20
2023-06-30T19:24:08.409Z,21.10
2023-06-30T19:26:36.502Z,21.00
2023-06-30T19:29:04.606Z,20.90
2023-06-30T19:31:32.768Z,20.70
2023-06-30T19:34:02.254Z,20.60
2023-06-30T19:36:32.853Z,20.60
2023-06-30T19:39:01.046Z,20.50
2023-06-30T19:41:29.133Z,20.50
2023-06-30T19:43:57.275Z,20.50
2023-06-30T19:46:25.376Z,20.50
2023-06-30T19:48:53.501Z,20.30
2023-06-30T19:51:22.973Z,20.30
2023-06-30T19:53:51.087Z,20.20
2023-06-30T19:56:19.278Z,20.20
2023-06-30T19:58:47.399Z,20.10
2023-06-30T20:01:17.922Z,20.10
2023-06-30T20:03:46.226Z,20.10
2023-06-30T20:06:14.430Z,19.90
2023-06-30T20:08:43.990Z,19.90
2023-06-30T20:11:13.219Z,19.90
2023-06-30T20:13:41.750Z,19.90
2023-06-30T20:16:10.647Z,19.80
2023-06-30T20:18:38.827Z,19.80
2023-06-30T20:21:07.340Z,19.80
2023-06-30T20:23:35.502Z,19.80
2023-06-30T20:26:05.005Z,19.80
2023-06-30T20:28:33.141Z,19.80
2023-06-30T20:31:01.238Z,19.90
2023-06-30T20:33:29.724Z,19.90
2023-06-30T20:36:00.690Z,19.80
2023-06-30T20:38:28.768Z,19.80
2023-06-30T20:40:57.004Z,19.80
2023-06-30T20:43:26.637Z,19.90
2023-06-30T20:45:54.729Z,19.90
2023-06-30T20:48:22.816Z,20.00
2023-06-30T20:50:51.000Z,20.00
2023-06-30T20:53:19.149Z,20.00
2023-06-30T20:55:47.287Z,20.00
2023-06-30T20:58:15.522Z,20.00
2023-06-30T21:00:45.254Z,20.00
2023-06-30T21:03:13.741Z,20.00
2023-06-30T21:05:42.065Z,20.00
2023-06-30T21:08:10.610Z,19.90
2023-06-30T21:10:38.889Z,19.90
2023-06-30T21:13:07.118Z,19.80
2023-06-30T21:15:35.207Z,19.80
2023-06-30T21:18:05.451Z,19.80
2023-06-30T21:20:34.057Z,19.70
2023-06-30T21:23:02.212Z,19.70
2023-06-30T21:25:31.979Z,19.70
2023-06-30T21:28:00.105Z,19.60
2023-06-30T21:30:28.205Z,19.50
2023-06-30T21:32:56.465Z,19.50
2023-06-30T21:35:26.042Z,19.50
2023-06-30T21:37:54.150Z,19.50
2023-06-30T21:40:22.331Z,19.50
2023-06-30T21:42:50.420Z,19.40
2023-06-30T21:45:18.684Z,19.40
2023-06-30T21:47:46.943Z,19.40
2023-06-30T21:50:15.121Z,19.40
2023-06-30T21:52:44.676Z,19.30
2023-06-30T21:55:12.844Z,19.30
2023-06-30T21:57:40.927Z,19.30
2023-06-30T22:00:10.798Z,19.30
2023-06-30T22:02:39.099Z,19.30
2023-06-30T22:05:07.455Z,19.30
2023-06-30T22:07:35.614Z,19.30
2023-06-30T22:10:07.075Z,19.30
2023-06-30T22:12:35.215Z,19.20
2023-06-30T22:15:03.867Z,19.30
2023-06-30T22:17:32.064Z,19.30
2023-06-30T22:20:02.260Z,19.30
2023-06-30T22:22:30.404Z,19.20
2023-06-30T22:24:58.560Z,19.30
2023-06-30T22:27:28.069Z,19.30
2023-06-30T22:29:56.345Z,19.30
2023-06-30T22:32:25.640Z,19.30
2023-06-30T22:34:53.781Z,19.20
2023-06-30T22:37:22.379Z,19.30
2023-06-30T22:39:50.470Z,19.20
2023-06-30T22:42:22.687Z,19.30
2023-06-30T22:44:52.320Z,19.20
2023-06-30T22:47:20.574Z,19.30
2023-06-30T22:49:48.838Z,19.20
2023-06-30T22:52:16.952Z,19.20
2023-06-30T22:54:45.066Z,19.20
2023-06-30T22:57:13.154Z,19.20
2023-06-30T22:59:41.271Z,19.20
2023-06-30T23:02:10.736Z,19.20
2023-06-30T23:04:39.391Z,19.20
2023-06-30T23:07:08.252Z,19.10
2023-06-30T23:09:36.369Z,19.10
2023-06-30T23:12:04.684Z,19.10
2023-06-30T23:14:32.790Z,19.10
2023-06-30T23:17:00.916Z,19.10
2023-06-30T23:19:30.516Z,19.10
2023-06-30T23:22:06.754Z,19.10
2023-06-30T23:24:35.469Z,19.10
2023-06-30T23:27:04.493Z,19.10
2023-06-30T23:29:34.898Z,19.10
2023-06-30T23:32:07.267Z,19.10
2023-06-30T23:34:37.993Z,19.20
2023-06-30T23:37:06.875Z,19.10
2023-06-30T23:39:36.824Z,19.10
2023-06-30T23:42:05.659Z,19.10
2023-06-30T23:44:33.805Z,19.10
2023-06-30T23:47:03.524Z,19.00
2023-06-30T23:49:32.409Z,19.00
2023-06-30T23:52:02.200Z,18.90
2023-06-30T23:54:30.275Z,18.90
2023-06-30T23:56:58.378Z,18.90
2023-06-30T23:59:26.526Z,18.90
